Roy Kristian — CFK5461 — position and weather

sailwx.info

Track history (hours):
 
Tides and Currents Weather Stations Pressure Air Temp Water Temp Dewpoint Dewpoint Depression Visibility Wind Speed Wind Dir Waves Ship Positions

Roy Kristian

Last reported at 2017-Oct-18 22:29 UTC. Time now 2017-Oct-18 22:34 UTC.
Position N 50°42' W 127°18'.

; draft 4 m.

Type: Fishing. MMSI: 316008770.

Date/timePositionNaut miles runAvg speedWind from/ knotsBaromVisibWave heightAir tempDewpointWater temp
2017-Oct-18 22:29N 50°42' W 127°18'5 9.7
2017-Oct-18 22:00N 50°45' W 127°23'2 4.2
2017-Oct-18 21:29N 50°46' W 127°26'3 1.7
2017-Oct-18 19:27N 50°43' W 127°29'0 0.0
2017-Oct-18 19:00N 50°43' W 127°29'0 0.1
2017-Oct-18 18:30N 50°43' W 127°29'1 1.8
2017-Oct-18 17:59N 50°43' W 127°28'0 0.0
2017-Oct-18 17:30N 50°43' W 127°28'0 0.2
2017-Oct-18 17:00N 50°43' W 127°28'0 0.4
2017-Oct-18 16:30N 50°44' W 127°28'0 0.5
2017-Oct-18 16:00N 50°44' W 127°28'0 0.4
2017-Oct-18 15:30N 50°44' W 127°28'1 1.7
2017-Oct-18 15:00N 50°43' W 127°29'0 0.0
2017-Oct-18 14:00N 50°43' W 127°29'0 0.0
2017-Oct-18 13:30N 50°43' W 127°29'0 0.0
2017-Oct-18 13:00N 50°43' W 127°29'0 0.0
2017-Oct-18 12:30N 50°43' W 127°29'0 0.0
2017-Oct-18 12:00N 50°43' W 127°29'0 0.0
2017-Oct-18 11:30N 50°43' W 127°29'0 0.0
2017-Oct-18 11:00N 50°43' W 127°29'0 0.0
2017-Oct-18 10:30N 50°43' W 127°29'0 0.0
2017-Oct-18 10:00N 50°43' W 127°29'0 0.0
2017-Oct-18 09:30N 50°43' W 127°29'0 0.0
2017-Oct-18 09:00N 50°43' W 127°29'0 0.0
2017-Oct-18 08:30N 50°43' W 127°29'0 0.0
2017-Oct-18 08:00N 50°43' W 127°29'0 0.0
2017-Oct-18 07:30N 50°43' W 127°29'0 0.0
2017-Oct-18 07:00N 50°43' W 127°29'0 0.0
2017-Oct-18 06:30N 50°43' W 127°29'0 0.0
2017-Oct-18 05:59N 50°43' W 127°29'0 0.0
2017-Oct-18 05:30N 50°43' W 127°29'0 0.0
2017-Oct-18 04:53N 50°43' W 127°29'0 0.0
2017-Oct-18 04:30N 50°43' W 127°29'0 0.0
2017-Oct-18 04:00N 50°43' W 127°29'0 0.0
2017-Oct-18 03:30N 50°43' W 127°29'0 0.7
2017-Oct-18 03:00N 50°44' W 127°29'4 8.1
2017-Oct-18 02:30N 50°47' W 127°31'611.6
2017-Oct-18 02:00N 50°49' W 127°40'611.1
2017-Oct-18 01:30N 50°51' W 127°48'4 3.6
2017-Oct-18 00:20N 50°54' W 127°54'3 7.5
2017-Oct-17 23:56N 50°52' W 127°50'4 9.6
2017-Oct-17 23:30N 50°51' W 127°43'5 9.3
2017-Oct-17 23:00N 50°49' W 127°37'4 7.0
2017-Oct-17 22:30N 50°50' W 127°31'0 0.0
2017-Oct-17 22:00N 50°50' W 127°31'0 0.0
2017-Oct-17 21:30N 50°50' W 127°31'3 6.1
2017-Oct-17 21:00N 50°49' W 127°36'611.3
2017-Oct-17 20:30N 50°51' W 127°44'711.2
2017-Oct-17 19:54N 50°54' W 127°54'0 0.1
2017-Oct-17 18:53N 50°54' W 127°54'3 6.9
2017-Oct-17 18:29N 50°52' W 127°50'4 8.4
2017-Oct-17 18:00N 50°51' W 127°44'5 9.2
2017-Oct-17 17:30N 50°49' W 127°37'4 8.0
2017-Oct-17 17:00N 50°49' W 127°31'0 0.9
2017-Oct-17 16:30N 50°50' W 127°31'0 0.0
2017-Oct-17 16:00N 50°50' W 127°31'0 0.0
2017-Oct-17 15:30N 50°50' W 127°31'0 0.0
2017-Oct-17 15:00N 50°50' W 127°31'0 0.0
2017-Oct-17 14:30N 50°50' W 127°31'0 0.0
2017-Oct-17 14:00N 50°50' W 127°31'0 0.0
2017-Oct-17 13:30N 50°50' W 127°31'0 0.0
2017-Oct-17 13:00N 50°50' W 127°31'0 0.0
2017-Oct-17 12:30N 50°50' W 127°31'0 0.0
2017-Oct-17 12:00N 50°50' W 127°31'0 0.0
2017-Oct-17 11:30N 50°50' W 127°31'0 0.0
2017-Oct-17 11:00N 50°50' W 127°31'0 0.0
2017-Oct-17 10:30N 50°50' W 127°31'0 0.0
2017-Oct-17 10:00N 50°50' W 127°31'0 0.0
2017-Oct-17 09:30N 50°50' W 127°31'0 0.0
2017-Oct-17 09:00N 50°50' W 127°31'0 0.0
2017-Oct-17 08:28N 50°50' W 127°31'0 0.0
2017-Oct-17 08:00N 50°50' W 127°31'0 0.0
2017-Oct-17 07:30N 50°50' W 127°31'0 0.0
2017-Oct-17 07:00N 50°50' W 127°31'0 0.0
2017-Oct-17 06:30N 50°50' W 127°31'0 0.0
2017-Oct-17 06:00N 50°50' W 127°31'0 0.0
2017-Oct-17 05:30N 50°50' W 127°31'0 0.0
2017-Oct-17 05:00N 50°50' W 127°31'0 0.0
2017-Oct-17 04:30N 50°50' W 127°31'0 0.0
2017-Oct-17 04:00N 50°50' W 127°31'3 5.9
2017-Oct-17 03:30N 50°49' W 127°36'511.0
2017-Oct-17 03:00N 50°50' W 127°44'1 0.3
2017-Oct-17 00:45N 50°51' W 127°45'210.0
2017-Oct-17 00:30N 50°50' W 127°41'510.6
2017-Oct-17 00:01N 50°48' W 127°33'2 3.8
2017-Oct-16 23:30N 50°50' W 127°31'0 0.0
2017-Oct-16 23:00N 50°50' W 127°31'0 0.0
2017-Oct-16 22:30N 50°50' W 127°31'3 5.8
2017-Oct-16 22:00N 50°49' W 127°35'510.2
2017-Oct-16 21:30N 50°50' W 127°43'510.6
2017-Oct-16 21:00N 50°52' W 127°51'2 4.5
2017-Oct-16 20:30N 50°54' W 127°54'0 0.0
2017-Oct-16 19:58N 50°54' W 127°54'3 6.0
2017-Oct-16 19:30N 50°52' W 127°50'5 9.6
2017-Oct-16 19:00N 50°50' W 127°43'510.2
2017-Oct-16 18:30N 50°49' W 127°35'3 5.8
2017-Oct-16 18:00N 50°50' W 127°31'0 0.0
2017-Oct-16 17:30N 50°50' W 127°31'0 0.0
2017-Oct-16 17:00N 50°50' W 127°31'0 0.0
2017-Oct-16 16:30N 50°50' W 127°31'0 0.0
2017-Oct-16 16:00N 50°50' W 127°31'0 0.1
2017-Oct-16 15:30N 50°50' W 127°31'0 0.0
2017-Oct-16 15:00N 50°50' W 127°31'0 0.0
2017-Oct-16 14:00N 50°50' W 127°31'0 0.0
2017-Oct-16 13:30N 50°50' W 127°31'0 0.0
2017-Oct-16 13:00N 50°50' W 127°31'0 0.0
2017-Oct-16 12:30N 50°50' W 127°31'0 0.0
2017-Oct-16 12:00N 50°50' W 127°31'0 0.0
2017-Oct-16 11:30N 50°50' W 127°31'0 0.0
2017-Oct-16 11:00N 50°50' W 127°31'0 0.0
2017-Oct-16 10:30N 50°50' W 127°31'0 0.0
2017-Oct-16 10:00N 50°50' W 127°31'0 0.0
2017-Oct-16 09:30N 50°50' W 127°31'0 0.0
2017-Oct-16 09:00N 50°50' W 127°31'0 0.0
2017-Oct-16 08:30N 50°50' W 127°31'0 0.0
2017-Oct-16 07:59N 50°50' W 127°31'0 0.0
2017-Oct-16 07:30N 50°50' W 127°31'0 0.0
2017-Oct-16 07:00N 50°50' W 127°31'0 0.0
2017-Oct-16 06:30N 50°50' W 127°31'0 0.0
2017-Oct-16 06:00N 50°50' W 127°31'0 0.0
2017-Oct-16 05:30N 50°50' W 127°31'0 0.0
2017-Oct-16 05:00N 50°50' W 127°31'0 0.0
2017-Oct-16 04:30N 50°50' W 127°31'0 0.0
2017-Oct-16 04:00N 50°50' W 127°31'0 0.0
2017-Oct-16 03:30N 50°50' W 127°31'0 0.0
2017-Oct-16 03:00N 50°50' W 127°31'0 0.0
2017-Oct-16 02:30N 50°50' W 127°31'0 0.0
2017-Oct-16 02:00N 50°50' W 127°31'0 0.0
2017-Oct-16 01:31N 50°50' W 127°31'3 6.7
2017-Oct-16 01:00N 50°49' W 127°36'510.0
2017-Oct-16 00:30N 50°50' W 127°44'5 9.6
2017-Oct-16 00:00N 50°52' W 127°51'1 1.2
2017-Oct-15 22:52N 50°53' W 127°53'410.5
2017-Oct-15 22:30N 50°51' W 127°47'510.4
2017-Oct-15 22:00N 50°50' W 127°39'5 9.7
2017-Oct-15 21:30N 50°49' W 127°32'1 2.3
2017-Oct-15 21:00N 50°50' W 127°31'0 0.0
2017-Oct-15 20:30N 50°50' W 127°31'0 0.0
2017-Oct-15 20:00N 50°50' W 127°31'0 0.0
2017-Oct-15 19:30N 50°50' W 127°31'0 0.0
2017-Oct-15 19:00N 50°50' W 127°31'0 0.0
2017-Oct-15 18:30N 50°50' W 127°31'0 0.0
2017-Oct-15 18:00N 50°50' W 127°31'0 0.0
2017-Oct-15 17:30N 50°50' W 127°31'0 0.0
2017-Oct-15 17:00N 50°50' W 127°31'0 0.0
2017-Oct-15 16:30N 50°50' W 127°31'0 0.0
2017-Oct-15 16:00N 50°50' W 127°31'0 0.0
2017-Oct-15 15:30N 50°50' W 127°31'4 7.3
2017-Oct-15 15:00N 50°47' W 127°29'3 1.5
2017-Oct-15 12:48N 50°43' W 127°29'0 0.0
2017-Oct-15 12:28N 50°43' W 127°29'0 0.0
2017-Oct-15 11:32N 50°43' W 127°29'0 0.0
2017-Oct-15 11:30N 50°43' W 127°29'0 0.0
2017-Oct-15 11:00N 50°43' W 127°29'0 0.0
2017-Oct-15 10:18N 50°43' W 127°29'0 0.0
2017-Oct-15 07:53N 50°43' W 127°29'0 0.0
2017-Oct-15 07:30N 50°43' W 127°29'0 0.0
2017-Oct-15 07:00N 50°43' W 127°29'0 0.0
2017-Oct-15 06:30N 50°43' W 127°29'0 0.0
2017-Oct-15 06:00N 50°43' W 127°29'0 0.0
2017-Oct-15 05:30N 50°43' W 127°29'0 0.0
2017-Oct-15 05:00N 50°43' W 127°29'0 0.0
2017-Oct-15 04:30N 50°43' W 127°29'0 0.0
2017-Oct-15 04:00N 50°43' W 127°29'0 0.0
2017-Oct-15 03:29N 50°43' W 127°29'0 0.0
2017-Oct-15 02:58N 50°43' W 127°29'0 0.0
2017-Oct-15 02:29N 50°43' W 127°29'0 0.0
2017-Oct-15 02:00N 50°43' W 127°29'0 0.0
2017-Oct-15 01:30N 50°43' W 127°29'0 0.0
2017-Oct-14 22:11N 50°43' W 127°29'0 1.3
2017-Oct-14 22:00N 50°43' W 127°29'4 7.4
2017-Oct-14 21:30N 50°47' W 127°30'5 9.3
2017-Oct-14 21:00N 50°49' W 127°37'5 9.4
2017-Oct-14 20:30N 50°50' W 127°44'6 3.6
2017-Oct-14 18:45N 50°53' W 127°53'310.7
2017-Oct-14 18:28N 50°52' W 127°49'511.0
2017-Oct-14 18:00N 50°50' W 127°42'510.6
2017-Oct-14 17:30N 50°48' W 127°34'2 4.3
2017-Oct-14 17:00N 50°50' W 127°31'0 0.0
2017-Oct-14 16:30N 50°50' W 127°31'0 0.0
2017-Oct-14 16:00N 50°50' W 127°31'0 0.1
2017-Oct-14 15:30N 50°50' W 127°31'0 0.0
2017-Oct-14 15:00N 50°50' W 127°31'0 0.0
2017-Oct-14 14:30N 50°50' W 127°31'0 0.0
2017-Oct-14 13:59N 50°50' W 127°31'0 0.0
2017-Oct-14 13:30N 50°50' W 127°31'0 0.0
2017-Oct-14 13:00N 50°50' W 127°31'0 0.0
2017-Oct-14 12:30N 50°50' W 127°31'0 0.0
2017-Oct-14 12:00N 50°50' W 127°31'0 0.0
2017-Oct-14 11:30N 50°50' W 127°31'0 0.0
2017-Oct-14 11:00N 50°50' W 127°31'0 0.0
2017-Oct-14 10:30N 50°50' W 127°31'0 0.0
2017-Oct-14 10:00N 50°50' W 127°31'0 0.0
2017-Oct-14 09:30N 50°50' W 127°31'0 0.0
2017-Oct-14 09:00N 50°50' W 127°31'0 0.0
2017-Oct-14 08:30N 50°50' W 127°31'0 0.0
2017-Oct-14 08:00N 50°50' W 127°31'0 0.0
2017-Oct-14 07:30N 50°50' W 127°31'0 0.0
2017-Oct-14 07:00N 50°50' W 127°31'0 0.0
2017-Oct-14 06:30N 50°50' W 127°31'0 0.0
2017-Oct-14 06:00N 50°50' W 127°31'0 0.0
2017-Oct-14 05:29N 50°50' W 127°31'0 0.0
2017-Oct-14 05:00N 50°50' W 127°31'0 0.0
2017-Oct-14 02:34N 50°50' W 127°31'0 2.3
2017-Oct-14 02:30N 50°50' W 127°31'4 7.7
2017-Oct-14 02:00N 50°49' W 127°37'610.9
2017-Oct-14 01:29N 50°51' W 127°46'510.8
2017-Oct-14 01:00N 50°53' W 127°53'7 4.5
2017-Oct-13 23:20N 50°50' W 127°42'310.0
2017-Oct-13 23:00N 50°49' W 127°37'4 7.7
2017-Oct-13 22:30N 50°50' W 127°31'0 0.2
2017-Oct-13 22:00N 50°50' W 127°31'0 0.0
2017-Oct-13 21:30N 50°50' W 127°31'2 3.4
2017-Oct-13 21:00N 50°48' W 127°32'510.1
2017-Oct-13 20:30N 50°50' W 127°40'510.9
2017-Oct-13 20:00N 50°51' W 127°48'4 8.0
2017-Oct-13 19:29N 50°54' W 127°54'0 0.3
2017-Oct-13 18:51N 50°54' W 127°54'3 8.6
2017-Oct-13 18:30N 50°52' W 127°49'5 9.7
2017-Oct-13 18:00N 50°50' W 127°42'5 9.8
2017-Oct-13 17:30N 50°49' W 127°35'3 5.1
2017-Oct-13 17:00N 50°50' W 127°31'0 0.4
2017-Oct-13 16:30N 50°50' W 127°31'0 0.0
2017-Oct-13 16:00N 50°50' W 127°31'0 0.0
2017-Oct-13 15:30N 50°50' W 127°31'0 0.0
2017-Oct-13 15:00N 50°50' W 127°31'0 0.0
2017-Oct-13 14:30N 50°50' W 127°31'0 0.0
2017-Oct-13 14:00N 50°50' W 127°31'0 0.0
2017-Oct-13 13:30N 50°50' W 127°31'0 0.0
2017-Oct-13 13:00N 50°50' W 127°31'0 0.0
2017-Oct-13 12:30N 50°50' W 127°31'0 0.0
2017-Oct-13 12:00N 50°50' W 127°31'0 0.0
2017-Oct-13 11:30N 50°50' W 127°31'0 0.0
2017-Oct-13 11:00N 50°50' W 127°31'0 0.0
2017-Oct-13 10:30N 50°50' W 127°31'0 0.0
2017-Oct-13 10:00N 50°50' W 127°31'0 0.0
2017-Oct-13 09:30N 50°50' W 127°31'0 0.0
2017-Oct-13 09:00N 50°50' W 127°31'0 0.0
2017-Oct-13 08:30N 50°50' W 127°31'0 0.0
2017-Oct-13 08:00N 50°50' W 127°31'0 0.0
2017-Oct-13 07:30N 50°50' W 127°31'0 0.0
2017-Oct-13 07:00N 50°50' W 127°31'0 0.0
2017-Oct-13 06:30N 50°50' W 127°31'0 0.0
2017-Oct-13 06:00N 50°50' W 127°31'0 0.0
2017-Oct-13 05:30N 50°50' W 127°31'0 0.0
2017-Oct-13 05:00N 50°50' W 127°31'1 2.5
2017-Oct-13 04:30N 50°49' W 127°32'5 9.5
2017-Oct-13 04:00N 50°49' W 127°39'510.4
2017-Oct-13 03:30N 50°51' W 127°47'5 9.6
2017-Oct-13 03:00N 50°54' W 127°54'0 0.1
2017-Oct-13 02:19N 50°54' W 127°54'0 0.1
2017-Oct-13 01:45N 50°54' W 127°54'0 1.2
2017-Oct-13 01:30N 50°53' W 127°53'5 9.4
2017-Oct-13 01:00N 50°51' W 127°47'5 9.0
2017-Oct-13 00:30N 50°50' W 127°40'3 5.5
2017-Oct-13 00:00N 50°49' W 127°36'3 6.3
2017-Oct-12 23:30N 50°50' W 127°31'0 0.0
2017-Oct-12 23:00N 50°50' W 127°31'0 0.0
2017-Oct-12 22:30N 50°50' W 127°31'1 2.2
2017-Oct-12 22:00N 50°49' W 127°32'510.3
2017-Oct-12 21:30N 50°50' W 127°40'511.0
2017-Oct-12 21:00N 50°51' W 127°48'4 8.3
2017-Oct-12 20:30N 50°54' W 127°54'0 0.0
2017-Oct-12 19:59N 50°54' W 127°54'19 7.3
2017-Oct-12 17:26N 50°44' W 127°29'4 9.0
2017-Oct-12 17:00N 50°48' W 127°30'3 5.0
2017-Oct-12 16:30N 50°50' W 127°31'0 0.0
2017-Oct-12 16:00N 50°50' W 127°31'0 0.0
2017-Oct-12 15:30N 50°50' W 127°31'0 0.1
2017-Oct-12 15:00N 50°50' W 127°31'0 0.0
2017-Oct-12 14:30N 50°50' W 127°31'0 0.0
2017-Oct-12 14:00N 50°50' W 127°31'0 0.0
2017-Oct-12 13:30N 50°50' W 127°31'0 0.0
2017-Oct-12 12:59N 50°50' W 127°31'0 0.0
2017-Oct-12 11:55N 50°50' W 127°31'0 0.0
2017-Oct-12 11:31N 50°50' W 127°31'0 0.0
2017-Oct-12 11:00N 50°50' W 127°31'0 0.0
2017-Oct-12 10:30N 50°50' W 127°31'0 0.0
2017-Oct-12 10:00N 50°50' W 127°31'0 0.0
2017-Oct-12 09:30N 50°50' W 127°31'0 0.0
2017-Oct-12 09:00N 50°50' W 127°31'0 0.0
2017-Oct-12 08:30N 50°50' W 127°31'0 0.0
2017-Oct-12 08:00N 50°50' W 127°31'0 0.0
2017-Oct-12 07:30N 50°50' W 127°31'0 0.0
2017-Oct-12 07:00N 50°50' W 127°31'0 0.0
2017-Oct-12 06:19N 50°50' W 127°31'0 0.0
2017-Oct-12 06:00N 50°50' W 127°31'0 0.0
2017-Oct-12 05:30N 50°50' W 127°31'0 0.0
2017-Oct-12 05:00N 50°50' W 127°31'0 0.0
2017-Oct-12 04:30N 50°50' W 127°31'0 0.0
2017-Oct-12 04:00N 50°50' W 127°31'0 0.0
2017-Oct-12 03:30N 50°50' W 127°31'0 0.0
2017-Oct-12 03:00N 50°50' W 127°31'0 0.1
2017-Oct-12 02:30N 50°50' W 127°31'3 6.1
2017-Oct-12 02:00N 50°49' W 127°36'511.0
2017-Oct-12 01:30N 50°51' W 127°44'711.2
2017-Oct-12 00:54N 50°53' W 127°54'0 0.5
2017-Oct-12 00:30N 50°54' W 127°54'1 2.0
2017-Oct-12 00:00N 50°53' W 127°53'5 9.4
2017-Oct-11 23:30N 50°51' W 127°46'5 9.5
2017-Oct-11 23:00N 50°49' W 127°39'5 9.0
2017-Oct-11 22:30N 50°49' W 127°32'1 2.0
2017-Oct-11 22:00N 50°50' W 127°31'0 0.0
2017-Oct-11 21:30N 50°50' W 127°31'0 0.0
2017-Oct-11 21:00N 50°50' W 127°31'3 6.5
2017-Oct-11 20:30N 50°48' W 127°36'611.5
2017-Oct-11 20:00N 50°50' W 127°44'5 2.0
2017-Oct-11 17:22N 50°49' W 127°36'3 8.1
2017-Oct-11 17:00N 50°50' W 127°31'0 0.0
2017-Oct-11 00:00N 50°50' W 127°31'0 0.0
2017-Oct-10 23:30N 50°50' W 127°31'0 0.0
2017-Oct-10 23:00N 50°50' W 127°31'0 0.0
2017-Oct-10 22:30N 50°50' W 127°31'0 0.0
2017-Oct-10 22:00N 50°50' W 127°31'0 0.0
2017-Oct-10 21:30N 50°50' W 127°31'0 0.8
2017-Oct-10 21:00N 50°50' W 127°31'4 8.6
2017-Oct-10 20:30N 50°49' W 127°38'611.9
2017-Oct-10 20:00N 50°51' W 127°47'510.5
2017-Oct-10 19:30N 50°54' W 127°54'0 0.1
2017-Oct-10 19:00N 50°54' W 127°54'3 6.1
2017-Oct-10 18:30N 50°52' W 127°50'5 9.4
2017-Oct-10 18:00N 50°50' W 127°43'5 9.7
2017-Oct-10 17:30N 50°49' W 127°35'3 5.7
2017-Oct-10 17:00N 50°50' W 127°31'0 0.0
2017-Oct-10 16:30N 50°50' W 127°31'0 0.0
2017-Oct-10 16:00N 50°50' W 127°31'0 0.0
2017-Oct-10 15:30N 50°50' W 127°31'0 0.0
2017-Oct-10 15:00N 50°50' W 127°31'0 0.0
2017-Oct-10 14:00N 50°50' W 127°31'0 0.0
2017-Oct-10 13:30N 50°50' W 127°31'0 0.0
2017-Oct-10 13:00N 50°50' W 127°31'0 0.0
2017-Oct-10 12:30N 50°50' W 127°31'0 0.0
2017-Oct-10 12:00N 50°50' W 127°31'0 0.0
2017-Oct-10 11:30N 50°50' W 127°31'0 0.0
2017-Oct-10 11:00N 50°50' W 127°31'0 0.0
2017-Oct-10 10:30N 50°50' W 127°31'0 0.0
2017-Oct-10 10:00N 50°50' W 127°31'0 0.0
2017-Oct-10 09:31N 50°50' W 127°31'0 0.0
2017-Oct-10 09:00N 50°50' W 127°31'0 0.0
2017-Oct-10 08:30N 50°50' W 127°31'0 0.0
2017-Oct-10 08:00N 50°50' W 127°31'0 0.0
2017-Oct-10 07:30N 50°50' W 127°31'0 0.0
2017-Oct-10 07:00N 50°50' W 127°31'0 0.0
2017-Oct-10 06:30N 50°50' W 127°31'0 0.0
2017-Oct-10 05:57N 50°50' W 127°31'0 0.0
2017-Oct-10 05:30N 50°50' W 127°31'3 5.2
2017-Oct-10 05:00N 50°49' W 127°35'610.8
2017-Oct-10 04:25N 50°51' W 127°44'7 6.8
2017-Oct-10 03:26N 50°54' W 127°54'0 0.0
2017-Oct-10 03:00N 50°54' W 127°54'3 6.4
2017-Oct-10 02:29N 50°52' W 127°49'5 9.8
2017-Oct-10 02:00N 50°50' W 127°42'5 9.6
2017-Oct-10 01:30N 50°49' W 127°35'3 5.4
2017-Oct-10 01:00N 50°50' W 127°31'0 0.0
2017-Oct-10 00:30N 50°50' W 127°31'0 0.0
2017-Oct-10 00:00N 50°50' W 127°31'0 0.1
2017-Oct-09 23:30N 50°50' W 127°31'0 0.0
2017-Oct-09 23:00N 50°50' W 127°31'0 0.0
2017-Oct-09 22:28N 50°50' W 127°31'0 0.0
2017-Oct-09 22:00N 50°50' W 127°31'2 3.8
2017-Oct-09 21:30N 50°48' W 127°33'510.7
2017-Oct-09 21:00N 50°50' W 127°41'510.7
2017-Oct-09 20:30N 50°52' W 127°49'4 7.4
2017-Oct-09 20:00N 50°54' W 127°54'0 0.0
2017-Oct-09 19:30N 50°54' W 127°54'4 8.3
2017-Oct-09 19:00N 50°52' W 127°48'5 9.8
2017-Oct-09 18:30N 50°50' W 127°41'4 8.7
2017-Oct-09 18:00N 50°49' W 127°34'2 4.4
2017-Oct-09 17:30N 50°50' W 127°31'0 0.0
2017-Oct-09 17:00N 50°50' W 127°31'0 0.0
2017-Oct-09 16:30N 50°50' W 127°31'0 0.0
2017-Oct-09 16:00N 50°50' W 127°31'3 6.7
2017-Oct-09 15:30N 50°47' W 127°29'3 7.0
2017-Oct-09 15:00N 50°43' W 127°29'0 0.0
2017-Oct-09 14:30N 50°43' W 127°29'0 0.0
2017-Oct-09 14:00N 50°43' W 127°29'0 0.0
2017-Oct-09 13:30N 50°43' W 127°29'0 0.0
2017-Oct-09 13:00N 50°43' W 127°29'0 0.0
2017-Oct-09 12:30N 50°43' W 127°29'0 0.0
2017-Oct-09 12:00N 50°43' W 127°29'0 0.0
2017-Oct-09 11:30N 50°43' W 127°29'0 0.0
2017-Oct-09 11:00N 50°43' W 127°29'0 0.0
2017-Oct-09 10:30N 50°43' W 127°29'0 0.0
2017-Oct-09 10:00N 50°43' W 127°29'0 0.0
2017-Oct-09 09:30N 50°43' W 127°29'0 0.0
2017-Oct-09 09:00N 50°43' W 127°29'0 0.0
2017-Oct-09 08:30N 50°43' W 127°29'0 0.0
2017-Oct-09 08:00N 50°43' W 127°29'0 0.0
2017-Oct-09 07:30N 50°43' W 127°29'0 0.0
2017-Oct-09 07:00N 50°43' W 127°29'0 0.0
2017-Oct-09 06:30N 50°43' W 127°29'0 0.0
2017-Oct-09 06:00N 50°43' W 127°29'0 0.0
2017-Oct-09 05:30N 50°43' W 127°29'0 0.0
2017-Oct-09 05:00N 50°43' W 127°29'0 0.0
2017-Oct-09 04:30N 50°43' W 127°29'0 0.0
2017-Oct-09 04:00N 50°43' W 127°29'0 0.0
2017-Oct-09 03:30N 50°43' W 127°29'0 0.0
2017-Oct-09 03:00N 50°43' W 127°29'0 0.0
2017-Oct-09 02:30N 50°43' W 127°29'0 0.0
2017-Oct-09 02:00N 50°43' W 127°29'0 0.0
2017-Oct-09 01:30N 50°43' W 127°29'0 0.0
2017-Oct-09 01:00N 50°43' W 127°29'0 0.0
2017-Oct-09 00:30N 50°43' W 127°29'0 0.4
2017-Oct-09 00:00N 50°43' W 127°29'4 8.1
2017-Oct-08 23:30N 50°45' W 127°23'711.1
2017-Oct-08 22:51N 50°40' W 127°14'  
Track history (hours):
 
Tides and Currents Weather Stations Pressure Air Temp Water Temp Dewpoint Dewpoint Depression Visibility Wind Speed Wind Dir Waves Ship Positions

Roy Kristian

Last reported at 2017-Oct-18 22:29 UTC. Time now 2017-Oct-18 22:34 UTC.
Position N 50°42' W 127°18'.

; draft 4 m.

Type: Fishing. MMSI: 316008770.

Date/timePositionNaut miles runAvg speedWind from/ knotsBaromVisibWave heightAir tempDewpointWater temp
2017-Oct-18 22:29N 50°42' W 127°18'5 9.7
2017-Oct-18 22:00N 50°45' W 127°23'2 4.2
2017-Oct-18 21:29N 50°46' W 127°26'3 1.7
2017-Oct-18 19:27N 50°43' W 127°29'0 0.0
2017-Oct-18 19:00N 50°43' W 127°29'0 0.1
2017-Oct-18 18:30N 50°43' W 127°29'1 1.8
2017-Oct-18 17:59N 50°43' W 127°28'0 0.0
2017-Oct-18 17:30N 50°43' W 127°28'0 0.2
2017-Oct-18 17:00N 50°43' W 127°28'0 0.4
2017-Oct-18 16:30N 50°44' W 127°28'0 0.5
2017-Oct-18 16:00N 50°44' W 127°28'0 0.4
2017-Oct-18 15:30N 50°44' W 127°28'1 1.7
2017-Oct-18 15:00N 50°43' W 127°29'0 0.0
2017-Oct-18 14:00N 50°43' W 127°29'0 0.0
2017-Oct-18 13:30N 50°43' W 127°29'0 0.0
2017-Oct-18 13:00N 50°43' W 127°29'0 0.0
2017-Oct-18 12:30N 50°43' W 127°29'0 0.0
2017-Oct-18 12:00N 50°43' W 127°29'0 0.0
2017-Oct-18 11:30N 50°43' W 127°29'0 0.0
2017-Oct-18 11:00N 50°43' W 127°29'0 0.0
2017-Oct-18 10:30N 50°43' W 127°29'0 0.0
2017-Oct-18 10:00N 50°43' W 127°29'0 0.0
2017-Oct-18 09:30N 50°43' W 127°29'0 0.0
2017-Oct-18 09:00N 50°43' W 127°29'0 0.0
2017-Oct-18 08:30N 50°43' W 127°29'0 0.0
2017-Oct-18 08:00N 50°43' W 127°29'0 0.0
2017-Oct-18 07:30N 50°43' W 127°29'0 0.0
2017-Oct-18 07:00N 50°43' W 127°29'0 0.0
2017-Oct-18 06:30N 50°43' W 127°29'0 0.0
2017-Oct-18 05:59N 50°43' W 127°29'0 0.0
2017-Oct-18 05:30N 50°43' W 127°29'0 0.0
2017-Oct-18 04:53N 50°43' W 127°29'0 0.0
2017-Oct-18 04:30N 50°43' W 127°29'0 0.0
2017-Oct-18 04:00N 50°43' W 127°29'0 0.0
2017-Oct-18 03:30N 50°43' W 127°29'0 0.7
2017-Oct-18 03:00N 50°44' W 127°29'4 8.1
2017-Oct-18 02:30N 50°47' W 127°31'611.6
2017-Oct-18 02:00N 50°49' W 127°40'611.1
2017-Oct-18 01:30N 50°51' W 127°48'4 3.6
2017-Oct-18 00:20N 50°54' W 127°54'3 7.5
2017-Oct-17 23:56N 50°52' W 127°50'4 9.6
2017-Oct-17 23:30N 50°51' W 127°43'5 9.3
2017-Oct-17 23:00N 50°49' W 127°37'4 7.0
2017-Oct-17 22:30N 50°50' W 127°31'0 0.0
2017-Oct-17 22:00N 50°50' W 127°31'0 0.0
2017-Oct-17 21:30N 50°50' W 127°31'3 6.1
2017-Oct-17 21:00N 50°49' W 127°36'611.3
2017-Oct-17 20:30N 50°51' W 127°44'711.2
2017-Oct-17 19:54N 50°54' W 127°54'0 0.1
2017-Oct-17 18:53N 50°54' W 127°54'3 6.9
2017-Oct-17 18:29N 50°52' W 127°50'4 8.4
2017-Oct-17 18:00N 50°51' W 127°44'5 9.2
2017-Oct-17 17:30N 50°49' W 127°37'4 8.0
2017-Oct-17 17:00N 50°49' W 127°31'0 0.9
2017-Oct-17 16:30N 50°50' W 127°31'0 0.0
2017-Oct-17 16:00N 50°50' W 127°31'0 0.0
2017-Oct-17 15:30N 50°50' W 127°31'0 0.0
2017-Oct-17 15:00N 50°50' W 127°31'0 0.0
2017-Oct-17 14:30N 50°50' W 127°31'0 0.0
2017-Oct-17 14:00N 50°50' W 127°31'0 0.0
2017-Oct-17 13:30N 50°50' W 127°31'0 0.0
2017-Oct-17 13:00N 50°50' W 127°31'0 0.0
2017-Oct-17 12:30N 50°50' W 127°31'0 0.0
2017-Oct-17 12:00N 50°50' W 127°31'0 0.0
2017-Oct-17 11:30N 50°50' W 127°31'0 0.0
2017-Oct-17 11:00N 50°50' W 127°31'0 0.0
2017-Oct-17 10:30N 50°50' W 127°31'0 0.0
2017-Oct-17 10:00N 50°50' W 127°31'0 0.0
2017-Oct-17 09:30N 50°50' W 127°31'0 0.0
2017-Oct-17 09:00N 50°50' W 127°31'0 0.0
2017-Oct-17 08:28N 50°50' W 127°31'0 0.0
2017-Oct-17 08:00N 50°50' W 127°31'0 0.0
2017-Oct-17 07:30N 50°50' W 127°31'0 0.0
2017-Oct-17 07:00N 50°50' W 127°31'0 0.0
2017-Oct-17 06:30N 50°50' W 127°31'0 0.0
2017-Oct-17 06:00N 50°50' W 127°31'0 0.0
2017-Oct-17 05:30N 50°50' W 127°31'0 0.0
2017-Oct-17 05:00N 50°50' W 127°31'0 0.0
2017-Oct-17 04:30N 50°50' W 127°31'0 0.0
2017-Oct-17 04:00N 50°50' W 127°31'3 5.9
2017-Oct-17 03:30N 50°49' W 127°36'511.0
2017-Oct-17 03:00N 50°50' W 127°44'1 0.3
2017-Oct-17 00:45N 50°51' W 127°45'210.0
2017-Oct-17 00:30N 50°50' W 127°41'510.6
2017-Oct-17 00:01N 50°48' W 127°33'2 3.8
2017-Oct-16 23:30N 50°50' W 127°31'0 0.0
2017-Oct-16 23:00N 50°50' W 127°31'0 0.0
2017-Oct-16 22:30N 50°50' W 127°31'3 5.8
2017-Oct-16 22:00N 50°49' W 127°35'510.2
2017-Oct-16 21:30N 50°50' W 127°43'510.6
2017-Oct-16 21:00N 50°52' W 127°51'2 4.5
2017-Oct-16 20:30N 50°54' W 127°54'0 0.0
2017-Oct-16 19:58N 50°54' W 127°54'3 6.0
2017-Oct-16 19:30N 50°52' W 127°50'5 9.6
2017-Oct-16 19:00N 50°50' W 127°43'510.2
2017-Oct-16 18:30N 50°49' W 127°35'3 5.8
2017-Oct-16 18:00N 50°50' W 127°31'0 0.0
2017-Oct-16 17:30N 50°50' W 127°31'0 0.0
2017-Oct-16 17:00N 50°50' W 127°31'0 0.0
2017-Oct-16 16:30N 50°50' W 127°31'0 0.0
2017-Oct-16 16:00N 50°50' W 127°31'0 0.1
2017-Oct-16 15:30N 50°50' W 127°31'0 0.0
2017-Oct-16 15:00N 50°50' W 127°31'0 0.0
2017-Oct-16 14:00N 50°50' W 127°31'0 0.0
2017-Oct-16 13:30N 50°50' W 127°31'0 0.0
2017-Oct-16 13:00N 50°50' W 127°31'0 0.0
2017-Oct-16 12:30N 50°50' W 127°31'0 0.0
2017-Oct-16 12:00N 50°50' W 127°31'0 0.0
2017-Oct-16 11:30N 50°50' W 127°31'0 0.0
2017-Oct-16 11:00N 50°50' W 127°31'0 0.0
2017-Oct-16 10:30N 50°50' W 127°31'0 0.0
2017-Oct-16 10:00N 50°50' W 127°31'0 0.0
2017-Oct-16 09:30N 50°50' W 127°31'0 0.0
2017-Oct-16 09:00N 50°50' W 127°31'0 0.0
2017-Oct-16 08:30N 50°50' W 127°31'0 0.0
2017-Oct-16 07:59N 50°50' W 127°31'0 0.0
2017-Oct-16 07:30N 50°50' W 127°31'0 0.0
2017-Oct-16 07:00N 50°50' W 127°31'0 0.0
2017-Oct-16 06:30N 50°50' W 127°31'0 0.0
2017-Oct-16 06:00N 50°50' W 127°31'0 0.0
2017-Oct-16 05:30N 50°50' W 127°31'0 0.0
2017-Oct-16 05:00N 50°50' W 127°31'0 0.0
2017-Oct-16 04:30N 50°50' W 127°31'0 0.0
2017-Oct-16 04:00N 50°50' W 127°31'0 0.0
2017-Oct-16 03:30N 50°50' W 127°31'0 0.0
2017-Oct-16 03:00N 50°50' W 127°31'0 0.0
2017-Oct-16 02:30N 50°50' W 127°31'0 0.0
2017-Oct-16 02:00N 50°50' W 127°31'0 0.0
2017-Oct-16 01:31N 50°50' W 127°31'3 6.7
2017-Oct-16 01:00N 50°49' W 127°36'510.0
2017-Oct-16 00:30N 50°50' W 127°44'5 9.6
2017-Oct-16 00:00N 50°52' W 127°51'1 1.2
2017-Oct-15 22:52N 50°53' W 127°53'410.5
2017-Oct-15 22:30N 50°51' W 127°47'510.4
2017-Oct-15 22:00N 50°50' W 127°39'5 9.7
2017-Oct-15 21:30N 50°49' W 127°32'1 2.3
2017-Oct-15 21:00N 50°50' W 127°31'0 0.0
2017-Oct-15 20:30N 50°50' W 127°31'0 0.0
2017-Oct-15 20:00N 50°50' W 127°31'0 0.0
2017-Oct-15 19:30N 50°50' W 127°31'0 0.0
2017-Oct-15 19:00N 50°50' W 127°31'0 0.0
2017-Oct-15 18:30N 50°50' W 127°31'0 0.0
2017-Oct-15 18:00N 50°50' W 127°31'0 0.0
2017-Oct-15 17:30N 50°50' W 127°31'0 0.0
2017-Oct-15 17:00N 50°50' W 127°31'0 0.0
2017-Oct-15 16:30N 50°50' W 127°31'0 0.0
2017-Oct-15 16:00N 50°50' W 127°31'0 0.0
2017-Oct-15 15:30N 50°50' W 127°31'4 7.3
2017-Oct-15 15:00N 50°47' W 127°29'3 1.5
2017-Oct-15 12:48N 50°43' W 127°29'0 0.0
2017-Oct-15 12:28N 50°43' W 127°29'0 0.0
2017-Oct-15 11:32N 50°43' W 127°29'0 0.0
2017-Oct-15 11:30N 50°43' W 127°29'0 0.0
2017-Oct-15 11:00N 50°43' W 127°29'0 0.0
2017-Oct-15 10:18N 50°43' W 127°29'0 0.0
2017-Oct-15 07:53N 50°43' W 127°29'0 0.0
2017-Oct-15 07:30N 50°43' W 127°29'0 0.0
2017-Oct-15 07:00N 50°43' W 127°29'0 0.0
2017-Oct-15 06:30N 50°43' W 127°29'0 0.0
2017-Oct-15 06:00N 50°43' W 127°29'0 0.0
2017-Oct-15 05:30N 50°43' W 127°29'0 0.0
2017-Oct-15 05:00N 50°43' W 127°29'0 0.0
2017-Oct-15 04:30N 50°43' W 127°29'0 0.0
2017-Oct-15 04:00N 50°43' W 127°29'0 0.0
2017-Oct-15 03:29N 50°43' W 127°29'0 0.0
2017-Oct-15 02:58N 50°43' W 127°29'0 0.0
2017-Oct-15 02:29N 50°43' W 127°29'0 0.0
2017-Oct-15 02:00N 50°43' W 127°29'0 0.0
2017-Oct-15 01:30N 50°43' W 127°29'0 0.0
2017-Oct-14 22:11N 50°43' W 127°29'0 1.3
2017-Oct-14 22:00N 50°43' W 127°29'4 7.4
2017-Oct-14 21:30N 50°47' W 127°30'5 9.3
2017-Oct-14 21:00N 50°49' W 127°37'5 9.4
2017-Oct-14 20:30N 50°50' W 127°44'6 3.6
2017-Oct-14 18:45N 50°53' W 127°53'310.7
2017-Oct-14 18:28N 50°52' W 127°49'511.0
2017-Oct-14 18:00N 50°50' W 127°42'510.6
2017-Oct-14 17:30N 50°48' W 127°34'2 4.3
2017-Oct-14 17:00N 50°50' W 127°31'0 0.0
2017-Oct-14 16:30N 50°50' W 127°31'0 0.0
2017-Oct-14 16:00N 50°50' W 127°31'0 0.1
2017-Oct-14 15:30N 50°50' W 127°31'0 0.0
2017-Oct-14 15:00N 50°50' W 127°31'0 0.0
2017-Oct-14 14:30N 50°50' W 127°31'0 0.0
2017-Oct-14 13:59N 50°50' W 127°31'0 0.0
2017-Oct-14 13:30N 50°50' W 127°31'0 0.0
2017-Oct-14 13:00N 50°50' W 127°31'0 0.0
2017-Oct-14 12:30N 50°50' W 127°31'0 0.0
2017-Oct-14 12:00N 50°50' W 127°31'0 0.0
2017-Oct-14 11:30N 50°50' W 127°31'0 0.0
2017-Oct-14 11:00N 50°50' W 127°31'0 0.0
2017-Oct-14 10:30N 50°50' W 127°31'0 0.0
2017-Oct-14 10:00N 50°50' W 127°31'0 0.0
2017-Oct-14 09:30N 50°50' W 127°31'0 0.0
2017-Oct-14 09:00N 50°50' W 127°31'0 0.0
2017-Oct-14 08:30N 50°50' W 127°31'0 0.0
2017-Oct-14 08:00N 50°50' W 127°31'0 0.0
2017-Oct-14 07:30N 50°50' W 127°31'0 0.0
2017-Oct-14 07:00N 50°50' W 127°31'0 0.0
2017-Oct-14 06:30N 50°50' W 127°31'0 0.0
2017-Oct-14 06:00N 50°50' W 127°31'0 0.0
2017-Oct-14 05:29N 50°50' W 127°31'0 0.0
2017-Oct-14 05:00N 50°50' W 127°31'0 0.0
2017-Oct-14 02:34N 50°50' W 127°31'0 2.3
2017-Oct-14 02:30N 50°50' W 127°31'4 7.7
2017-Oct-14 02:00N 50°49' W 127°37'610.9
2017-Oct-14 01:29N 50°51' W 127°46'510.8
2017-Oct-14 01:00N 50°53' W 127°53'7 4.5
2017-Oct-13 23:20N 50°50' W 127°42'310.0
2017-Oct-13 23:00N 50°49' W 127°37'4 7.7
2017-Oct-13 22:30N 50°50' W 127°31'0 0.2
2017-Oct-13 22:00N 50°50' W 127°31'0 0.0
2017-Oct-13 21:30N 50°50' W 127°31'2 3.4
2017-Oct-13 21:00N 50°48' W 127°32'510.1
2017-Oct-13 20:30N 50°50' W 127°40'510.9
2017-Oct-13 20:00N 50°51' W 127°48'4 8.0
2017-Oct-13 19:29N 50°54' W 127°54'0 0.3
2017-Oct-13 18:51N 50°54' W 127°54'3 8.6
2017-Oct-13 18:30N 50°52' W 127°49'5 9.7
2017-Oct-13 18:00N 50°50' W 127°42'5 9.8
2017-Oct-13 17:30N 50°49' W 127°35'3 5.1
2017-Oct-13 17:00N 50°50' W 127°31'0 0.4
2017-Oct-13 16:30N 50°50' W 127°31'0 0.0
2017-Oct-13 16:00N 50°50' W 127°31'0 0.0
2017-Oct-13 15:30N 50°50' W 127°31'0 0.0
2017-Oct-13 15:00N 50°50' W 127°31'0 0.0
2017-Oct-13 14:30N 50°50' W 127°31'0 0.0
2017-Oct-13 14:00N 50°50' W 127°31'0 0.0
2017-Oct-13 13:30N 50°50' W 127°31'0 0.0
2017-Oct-13 13:00N 50°50' W 127°31'0 0.0
2017-Oct-13 12:30N 50°50' W 127°31'0 0.0
2017-Oct-13 12:00N 50°50' W 127°31'0 0.0
2017-Oct-13 11:30N 50°50' W 127°31'0 0.0
2017-Oct-13 11:00N 50°50' W 127°31'0 0.0
2017-Oct-13 10:30N 50°50' W 127°31'0 0.0
2017-Oct-13 10:00N 50°50' W 127°31'0 0.0
2017-Oct-13 09:30N 50°50' W 127°31'0 0.0
2017-Oct-13 09:00N 50°50' W 127°31'0 0.0
2017-Oct-13 08:30N 50°50' W 127°31'0 0.0
2017-Oct-13 08:00N 50°50' W 127°31'0 0.0
2017-Oct-13 07:30N 50°50' W 127°31'0 0.0
2017-Oct-13 07:00N 50°50' W 127°31'0 0.0
2017-Oct-13 06:30N 50°50' W 127°31'0 0.0
2017-Oct-13 06:00N 50°50' W 127°31'0 0.0
2017-Oct-13 05:30N 50°50' W 127°31'0 0.0
2017-Oct-13 05:00N 50°50' W 127°31'1 2.5
2017-Oct-13 04:30N 50°49' W 127°32'5 9.5
2017-Oct-13 04:00N 50°49' W 127°39'510.4
2017-Oct-13 03:30N 50°51' W 127°47'5 9.6
2017-Oct-13 03:00N 50°54' W 127°54'0 0.1
2017-Oct-13 02:19N 50°54' W 127°54'0 0.1
2017-Oct-13 01:45N 50°54' W 127°54'0 1.2
2017-Oct-13 01:30N 50°53' W 127°53'5 9.4
2017-Oct-13 01:00N 50°51' W 127°47'5 9.0
2017-Oct-13 00:30N 50°50' W 127°40'3 5.5
2017-Oct-13 00:00N 50°49' W 127°36'3 6.3
2017-Oct-12 23:30N 50°50' W 127°31'0 0.0
2017-Oct-12 23:00N 50°50' W 127°31'0 0.0
2017-Oct-12 22:30N 50°50' W 127°31'1 2.2
2017-Oct-12 22:00N 50°49' W 127°32'510.3
2017-Oct-12 21:30N 50°50' W 127°40'511.0
2017-Oct-12 21:00N 50°51' W 127°48'4 8.3
2017-Oct-12 20:30N 50°54' W 127°54'0 0.0
2017-Oct-12 19:59N 50°54' W 127°54'19 7.3
2017-Oct-12 17:26N 50°44' W 127°29'4 9.0
2017-Oct-12 17:00N 50°48' W 127°30'3 5.0
2017-Oct-12 16:30N 50°50' W 127°31'0 0.0
2017-Oct-12 16:00N 50°50' W 127°31'0 0.0
2017-Oct-12 15:30N 50°50' W 127°31'0 0.1
2017-Oct-12 15:00N 50°50' W 127°31'0 0.0
2017-Oct-12 14:30N 50°50' W 127°31'0 0.0
2017-Oct-12 14:00N 50°50' W 127°31'0 0.0
2017-Oct-12 13:30N 50°50' W 127°31'0 0.0
2017-Oct-12 12:59N 50°50' W 127°31'0 0.0
2017-Oct-12 11:55N 50°50' W 127°31'0 0.0
2017-Oct-12 11:31N 50°50' W 127°31'0 0.0
2017-Oct-12 11:00N 50°50' W 127°31'0 0.0
2017-Oct-12 10:30N 50°50' W 127°31'0 0.0
2017-Oct-12 10:00N 50°50' W 127°31'0 0.0
2017-Oct-12 09:30N 50°50' W 127°31'0 0.0
2017-Oct-12 09:00N 50°50' W 127°31'0 0.0
2017-Oct-12 08:30N 50°50' W 127°31'0 0.0
2017-Oct-12 08:00N 50°50' W 127°31'0 0.0
2017-Oct-12 07:30N 50°50' W 127°31'0 0.0
2017-Oct-12 07:00N 50°50' W 127°31'0 0.0
2017-Oct-12 06:19N 50°50' W 127°31'0 0.0
2017-Oct-12 06:00N 50°50' W 127°31'0 0.0
2017-Oct-12 05:30N 50°50' W 127°31'0 0.0
2017-Oct-12 05:00N 50°50' W 127°31'0 0.0
2017-Oct-12 04:30N 50°50' W 127°31'0 0.0
2017-Oct-12 04:00N 50°50' W 127°31'0 0.0
2017-Oct-12 03:30N 50°50' W 127°31'0 0.0
2017-Oct-12 03:00N 50°50' W 127°31'0 0.1
2017-Oct-12 02:30N 50°50' W 127°31'3 6.1
2017-Oct-12 02:00N 50°49' W 127°36'511.0
2017-Oct-12 01:30N 50°51' W 127°44'711.2
2017-Oct-12 00:54N 50°53' W 127°54'0 0.5
2017-Oct-12 00:30N 50°54' W 127°54'1 2.0
2017-Oct-12 00:00N 50°53' W 127°53'5 9.4
2017-Oct-11 23:30N 50°51' W 127°46'5 9.5
2017-Oct-11 23:00N 50°49' W 127°39'5 9.0
2017-Oct-11 22:30N 50°49' W 127°32'1 2.0
2017-Oct-11 22:00N 50°50' W 127°31'0 0.0
2017-Oct-11 21:30N 50°50' W 127°31'0 0.0
2017-Oct-11 21:00N 50°50' W 127°31'3 6.5
2017-Oct-11 20:30N 50°48' W 127°36'611.5
2017-Oct-11 20:00N 50°50' W 127°44'5 2.0
2017-Oct-11 17:22N 50°49' W 127°36'3 8.1
2017-Oct-11 17:00N 50°50' W 127°31'0 0.0
2017-Oct-11 00:00N 50°50' W 127°31'0 0.0
2017-Oct-10 23:30N 50°50' W 127°31'0 0.0
2017-Oct-10 23:00N 50°50' W 127°31'0 0.0
2017-Oct-10 22:30N 50°50' W 127°31'0 0.0
2017-Oct-10 22:00N 50°50' W 127°31'0 0.0
2017-Oct-10 21:30N 50°50' W 127°31'0 0.8
2017-Oct-10 21:00N 50°50' W 127°31'4 8.6
2017-Oct-10 20:30N 50°49' W 127°38'611.9
2017-Oct-10 20:00N 50°51' W 127°47'510.5
2017-Oct-10 19:30N 50°54' W 127°54'0 0.1
2017-Oct-10 19:00N 50°54' W 127°54'3 6.1
2017-Oct-10 18:30N 50°52' W 127°50'5 9.4
2017-Oct-10 18:00N 50°50' W 127°43'5 9.7
2017-Oct-10 17:30N 50°49' W 127°35'3 5.7
2017-Oct-10 17:00N 50°50' W 127°31'0 0.0
2017-Oct-10 16:30N 50°50' W 127°31'0 0.0
2017-Oct-10 16:00N 50°50' W 127°31'0 0.0
2017-Oct-10 15:30N 50°50' W 127°31'0 0.0
2017-Oct-10 15:00N 50°50' W 127°31'0 0.0
2017-Oct-10 14:00N 50°50' W 127°31'0 0.0
2017-Oct-10 13:30N 50°50' W 127°31'0 0.0
2017-Oct-10 13:00N 50°50' W 127°31'0 0.0
2017-Oct-10 12:30N 50°50' W 127°31'0 0.0
2017-Oct-10 12:00N 50°50' W 127°31'0 0.0
2017-Oct-10 11:30N 50°50' W 127°31'0 0.0
2017-Oct-10 11:00N 50°50' W 127°31'0 0.0
2017-Oct-10 10:30N 50°50' W 127°31'0 0.0
2017-Oct-10 10:00N 50°50' W 127°31'0 0.0
2017-Oct-10 09:31N 50°50' W 127°31'0 0.0
2017-Oct-10 09:00N 50°50' W 127°31'0 0.0
2017-Oct-10 08:30N 50°50' W 127°31'0 0.0
2017-Oct-10 08:00N 50°50' W 127°31'0 0.0
2017-Oct-10 07:30N 50°50' W 127°31'0 0.0
2017-Oct-10 07:00N 50°50' W 127°31'0 0.0
2017-Oct-10 06:30N 50°50' W 127°31'0 0.0
2017-Oct-10 05:57N 50°50' W 127°31'0 0.0
2017-Oct-10 05:30N 50°50' W 127°31'3 5.2
2017-Oct-10 05:00N 50°49' W 127°35'610.8
2017-Oct-10 04:25N 50°51' W 127°44'7 6.8
2017-Oct-10 03:26N 50°54' W 127°54'0 0.0
2017-Oct-10 03:00N 50°54' W 127°54'3 6.4
2017-Oct-10 02:29N 50°52' W 127°49'5 9.8
2017-Oct-10 02:00N 50°50' W 127°42'5 9.6
2017-Oct-10 01:30N 50°49' W 127°35'3 5.4
2017-Oct-10 01:00N 50°50' W 127°31'0 0.0
2017-Oct-10 00:30N 50°50' W 127°31'0 0.0
2017-Oct-10 00:00N 50°50' W 127°31'0 0.1
2017-Oct-09 23:30N 50°50' W 127°31'0 0.0
2017-Oct-09 23:00N 50°50' W 127°31'0 0.0
2017-Oct-09 22:28N 50°50' W 127°31'0 0.0
2017-Oct-09 22:00N 50°50' W 127°31'2 3.8
2017-Oct-09 21:30N 50°48' W 127°33'510.7
2017-Oct-09 21:00N 50°50' W 127°41'510.7
2017-Oct-09 20:30N 50°52' W 127°49'4 7.4
2017-Oct-09 20:00N 50°54' W 127°54'0 0.0
2017-Oct-09 19:30N 50°54' W 127°54'4 8.3
2017-Oct-09 19:00N 50°52' W 127°48'5 9.8
2017-Oct-09 18:30N 50°50' W 127°41'4 8.7
2017-Oct-09 18:00N 50°49' W 127°34'2 4.4
2017-Oct-09 17:30N 50°50' W 127°31'0 0.0
2017-Oct-09 17:00N 50°50' W 127°31'0 0.0
2017-Oct-09 16:30N 50°50' W 127°31'0 0.0
2017-Oct-09 16:00N 50°50' W 127°31'3 6.7
2017-Oct-09 15:30N 50°47' W 127°29'3 7.0
2017-Oct-09 15:00N 50°43' W 127°29'0 0.0
2017-Oct-09 14:30N 50°43' W 127°29'0 0.0
2017-Oct-09 14:00N 50°43' W 127°29'0 0.0
2017-Oct-09 13:30N 50°43' W 127°29'0 0.0
2017-Oct-09 13:00N 50°43' W 127°29'0 0.0
2017-Oct-09 12:30N 50°43' W 127°29'0 0.0
2017-Oct-09 12:00N 50°43' W 127°29'0 0.0
2017-Oct-09 11:30N 50°43' W 127°29'0 0.0
2017-Oct-09 11:00N 50°43' W 127°29'0 0.0
2017-Oct-09 10:30N 50°43' W 127°29'0 0.0
2017-Oct-09 10:00N 50°43' W 127°29'0 0.0
2017-Oct-09 09:30N 50°43' W 127°29'0 0.0
2017-Oct-09 09:00N 50°43' W 127°29'0 0.0
2017-Oct-09 08:30N 50°43' W 127°29'0 0.0
2017-Oct-09 08:00N 50°43' W 127°29'0 0.0
2017-Oct-09 07:30N 50°43' W 127°29'0 0.0
2017-Oct-09 07:00N 50°43' W 127°29'0 0.0
2017-Oct-09 06:30N 50°43' W 127°29'0 0.0
2017-Oct-09 06:00N 50°43' W 127°29'0 0.0
2017-Oct-09 05:30N 50°43' W 127°29'0 0.0
2017-Oct-09 05:00N 50°43' W 127°29'0 0.0
2017-Oct-09 04:30N 50°43' W 127°29'0 0.0
2017-Oct-09 04:00N 50°43' W 127°29'0 0.0
2017-Oct-09 03:30N 50°43' W 127°29'0 0.0
2017-Oct-09 03:00N 50°43' W 127°29'0 0.0
2017-Oct-09 02:30N 50°43' W 127°29'0 0.0
2017-Oct-09 02:00N 50°43' W 127°29'0 0.0
2017-Oct-09 01:30N 50°43' W 127°29'0 0.0
2017-Oct-09 01:00N 50°43' W 127°29'0 0.0
2017-Oct-09 00:30N 50°43' W 127°29'0 0.4
2017-Oct-09 00:00N 50°43' W 127°29'4 8.1
2017-Oct-08 23:30N 50°45' W 127°23'711.1
2017-Oct-08 22:51N 50°40' W 127°14'  

Dump ship's entire track history